Time;durP1;ratioP1;P1;durP2;ratioP2;P2;SDS_P1;SDS_P2;PMS_P1;PMS_P2;Temp;Humidity;BMP_temperature;BMP_pressure;BME280_temperature;BME280_humidity;BME280_pressure;Samples;Min_cycle;Max_cycle;Signal;HPM_P1;HPM_P2
2022/05/07 00:01:52;;;;;;;6.40;5.57;;;;;;;;;;5004102;28;20219;-62
2022/05/07 00:04:22;;;;;;;5.73;5.13;;;;;;;;;;5021673;28;20865;-62
2022/05/07 00:06:52;;;;;;;6.33;5.73;;;;;;;;;;5011886;28;20210;-61
2022/05/07 00:09:24;;;;;;;6.67;5.63;;;;;;;;;;5014523;28;20215;-61
2022/05/07 00:11:53;;;;;;;8.67;6.13;;;;;;;;;;5003218;28;20271;-61
2022/05/07 00:14:20;;;;;;;5.73;5.23;;;;;;;;;;5019728;28;20509;-61
2022/05/07 00:19:34;;;;;;;6.47;5.83;;;;;;;;;;5013691;28;20226;-62
2022/05/07 00:22:02;;;;;;;5.73;5.23;;;;;;;;;;5006582;28;20461;-62
2022/05/07 00:24:30;;;;;;;6.40;5.73;;;;;;;;;;5012807;28;20635;-61
2022/05/07 00:27:01;;;;;;;7.47;6.17;;;;;;;;;;5009008;28;20456;-61
2022/05/07 00:29:31;;;;;;;6.40;5.80;;;;;;;;;;5016436;28;20215;-61
2022/05/07 00:32:01;;;;;;;6.47;5.90;;;;;;;;;;5005184;28;20199;-61
2022/05/07 00:34:36;;;;;;;6.80;6.10;;;;;;;;;;5011557;28;20726;-62
2022/05/07 00:37:09;;;;;;;7.27;6.20;;;;;;;;;;5005770;28;20234;-61
2022/05/07 00:39:41;;;;;;;6.80;5.70;;;;;;;;;;5011153;28;20202;-62
2022/05/07 00:42:15;;;;;;;6.83;6.10;;;;;;;;;;5007956;28;20206;-62
2022/05/07 00:44:44;;;;;;;6.27;5.67;;;;;;;;;;5012734;28;20203;-62
2022/05/07 00:47:26;;;;;;;7.17;5.73;;;;;;;;;;5008619;28;20214;-62
2022/05/07 00:52:47;;;;;;;6.67;5.90;;;;;;;;;;4980106;28;20219;-62
2022/05/07 00:55:15;;;;;;;6.90;5.70;;;;;;;;;;5023065;28;20179;-62
2022/05/07 00:57:43;;;;;;;6.60;6.00;;;;;;;;;;5008302;28;20190;-61
2022/05/07 01:00:12;;;;;;;6.03;5.50;;;;;;;;;;5005705;28;20211;-62
2022/05/07 01:02:41;;;;;;;6.53;5.40;;;;;;;;;;5007808;28;20610;-62
2022/05/07 01:05:18;;;;;;;6.90;6.20;;;;;;;;;;5017965;28;20202;-61
2022/05/07 01:07:50;;;;;;;7.03;5.87;;;;;;;;;;5006155;28;20196;-61
2022/05/07 01:10:19;;;;;;;6.13;5.53;;;;;;;;;;5009204;28;20215;-62
2022/05/07 01:12:48;;;;;;;6.33;5.70;;;;;;;;;;4992635;28;20214;-61
2022/05/07 01:15:17;;;;;;;6.90;6.30;;;;;;;;;;5007710;28;20203;-62
2022/05/07 01:17:45;;;;;;;6.47;5.87;;;;;;;;;;5004480;28;20211;-62
2022/05/07 01:20:15;;;;;;;6.63;6.03;;;;;;;;;;5007478;28;20258;-61
2022/05/07 01:22:48;;;;;;;6.53;5.67;;;;;;;;;;5006780;28;20366;-62
2022/05/07 01:25:18;;;;;;;6.60;6.00;;;;;;;;;;5013038;28;20285;-62
2022/05/07 01:27:51;;;;;;;6.57;5.93;;;;;;;;;;5006515;28;20187;-61
2022/05/07 01:30:23;;;;;;;6.77;6.13;;;;;;;;;;5013686;28;20216;-62
2022/05/07 01:32:54;;;;;;;6.33;5.73;;;;;;;;;;5020397;28;20614;-62
2022/05/07 01:35:24;;;;;;;7.47;6.67;;;;;;;;;;5008671;28;20208;-61
2022/05/07 01:37:57;;;;;;;6.50;5.90;;;;;;;;;;5002626;28;20218;-62
2022/05/07 01:40:26;;;;;;;6.93;6.30;;;;;;;;;;5006633;28;20617;-61
2022/05/07 01:42:57;;;;;;;6.17;5.67;;;;;;;;;;5007245;28;20228;-61
2022/05/07 01:45:29;;;;;;;7.70;6.97;;;;;;;;;;5019235;28;20199;-61
2022/05/07 01:48:09;;;;;;;6.83;6.13;;;;;;;;;;5005330;28;20196;-61
2022/05/07 01:50:40;;;;;;;6.40;5.80;;;;;;;;;;5013521;28;20219;-61
2022/05/07 01:53:14;;;;;;;7.07;6.43;;;;;;;;;;5007480;28;20192;-61
2022/05/07 01:55:44;;;;;;;6.73;6.13;;;;;;;;;;5004197;28;20269;-62
2022/05/07 01:58:13;;;;;;;6.27;5.67;;;;;;;;;;5008691;28;20533;-61
2022/05/07 02:00:44;;;;;;;6.50;5.90;;;;;;;;;;5016850;28;20218;-61
2022/05/07 02:03:15;;;;;;;6.10;5.47;;;;;;;;;;5012784;28;20732;-62
2022/05/07 02:05:46;;;;;;;6.33;5.73;;;;;;;;;;5019694;28;20202;-61
2022/05/07 02:08:17;;;;;;;6.83;6.17;;;;;;;;;;5009974;28;20654;-62
2022/05/07 02:10:49;;;;;;;6.23;5.60;;;;;;;;;;5007505;28;20219;-62
2022/05/07 02:13:19;;;;;;;7.27;6.57;;;;;;;;;;5024474;28;20222;-62
2022/05/07 02:15:48;;;;;;;5.60;5.10;;;;;;;;;;5016852;28;20203;-61
2022/05/07 02:18:22;;;;;;;6.67;6.07;;;;;;;;;;5011516;28;20208;-61
2022/05/07 02:20:56;;;;;;;6.23;5.73;;;;;;;;;;5018094;28;20195;-62
2022/05/07 02:23:26;;;;;;;6.33;5.83;;;;;;;;;;5006502;28;20218;-62
2022/05/07 02:25:56;;;;;;;6.60;5.77;;;;;;;;;;5014439;28;20214;-61
2022/05/07 02:28:40;;;;;;;6.53;5.87;;;;;;;;;;5010367;28;20231;-61
2022/05/07 02:31:11;;;;;;;6.83;6.23;;;;;;;;;;5013613;28;20231;-62
2022/05/07 02:33:42;;;;;;;7.13;6.43;;;;;;;;;;5006417;28;20212;-61
2022/05/07 02:36:12;;;;;;;6.70;6.10;;;;;;;;;;4990663;28;20367;-62
2022/05/07 02:38:45;;;;;;;6.07;5.57;;;;;;;;;;5006655;28;20194;-61
2022/05/07 02:44:07;;;;;;;6.00;5.50;;;;;;;;;;5026734;28;20647;-62
2022/05/07 02:46:39;;;;;;;6.67;6.03;;;;;;;;;;5025807;28;20259;-62
2022/05/07 02:49:11;;;;;;;6.47;5.87;;;;;;;;;;5007056;28;20196;-61
2022/05/07 02:51:38;;;;;;;6.17;5.33;;;;;;;;;;5009147;28;20622;-61
2022/05/07 02:54:05;;;;;;;5.87;5.30;;;;;;;;;;4990252;28;20266;-62
2022/05/07 02:56:32;;;;;;;6.53;5.93;;;;;;;;;;5024452;28;20226;-62
2022/05/07 02:59:00;;;;;;;5.80;5.30;;;;;;;;;;5010051;28;20223;-61
2022/05/07 03:01:27;;;;;;;6.30;5.70;;;;;;;;;;5010456;28;20346;-62
2022/05/07 03:03:54;;;;;;;7.03;6.20;;;;;;;;;;5007174;28;20698;-61
2022/05/07 03:06:22;;;;;;;6.37;5.77;;;;;;;;;;5021884;28;20210;-61
2022/05/07 03:08:49;;;;;;;6.13;5.63;;;;;;;;;;5029475;28;20199;-60
2022/05/07 03:11:17;;;;;;;5.70;5.20;;;;;;;;;;5022724;28;20785;-61
2022/05/07 03:13:44;;;;;;;6.70;6.10;;;;;;;;;;5027128;28;20210;-61
2022/05/07 03:16:11;;;;;;;5.90;5.40;;;;;;;;;;5017671;28;20820;-60
2022/05/07 03:18:45;;;;;;;5.93;5.43;;;;;;;;;;5010112;28;20278;-60
2022/05/07 03:21:12;;;;;;;6.20;5.60;;;;;;;;;;5001653;28;20846;-61
2022/05/07 03:23:44;;;;;;;6.17;5.57;;;;;;;;;;5013236;28;20202;-61
2022/05/07 03:26:11;;;;;;;6.17;5.67;;;;;;;;;;5012751;28;20978;-60
2022/05/07 03:28:39;;;;;;;6.23;5.67;;;;;;;;;;5012313;28;20266;-61
2022/05/07 03:31:06;;;;;;;6.67;5.97;;;;;;;;;;5017207;28;20207;-60
2022/05/07 03:33:33;;;;;;;5.83;5.33;;;;;;;;;;5014525;28;20277;-61
2022/05/07 03:36:01;;;;;;;6.40;5.90;;;;;;;;;;5011396;28;20191;-61
2022/05/07 03:38:28;;;;;;;6.33;5.73;;;;;;;;;;5018608;28;20524;-61
2022/05/07 03:40:55;;;;;;;6.63;6.03;;;;;;;;;;5014591;28;20198;-62
2022/05/07 03:43:22;;;;;;;7.23;6.53;;;;;;;;;;5028959;28;20207;-62
2022/05/07 03:45:49;;;;;;;9.80;6.10;;;;;;;;;;5027874;28;20195;-62
2022/05/07 03:48:16;;;;;;;6.90;6.27;;;;;;;;;;5026273;28;20244;-62
2022/05/07 03:50:43;;;;;;;6.07;5.50;;;;;;;;;;5019326;28;20223;-63
2022/05/07 03:56:06;;;;;;;6.50;5.90;;;;;;;;;;5019374;28;20210;-62
2022/05/07 03:58:38;;;;;;;6.20;5.57;;;;;;;;;;5008615;28;20382;-62
2022/05/07 04:01:15;;;;;;;7.13;6.43;;;;;;;;;;5014936;28;20206;-63
2022/05/07 04:03:44;;;;;;;6.43;5.83;;;;;;;;;;5028975;28;20300;-62
2022/05/07 04:06:13;;;;;;;7.73;5.27;;;;;;;;;;5007997;28;20639;-63
2022/05/07 04:08:45;;;;;;;6.43;5.83;;;;;;;;;;4996633;28;20210;-64
2022/05/07 04:11:15;;;;;;;6.93;5.20;;;;;;;;;;5010773;28;20233;-62
2022/05/07 04:13:42;;;;;;;8.47;5.97;;;;;;;;;;5005871;28;20251;-62
2022/05/07 04:16:14;;;;;;;6.23;5.67;;;;;;;;;;5006674;28;20249;-63
2022/05/07 04:18:46;;;;;;;7.13;6.43;;;;;;;;;;5008664;28;20199;-63
2022/05/07 04:21:17;;;;;;;6.37;5.80;;;;;;;;;;5011419;28;20203;-63
2022/05/07 04:23:47;;;;;;;7.57;6.53;;;;;;;;;;5011070;28;20531;-63
2022/05/07 04:26:16;;;;;;;6.40;5.80;;;;;;;;;;5006732;28;20289;-63
2022/05/07 04:28:49;;;;;;;5.87;5.37;;;;;;;;;;5022260;28;20223;-63
2022/05/07 04:31:19;;;;;;;6.20;5.70;;;;;;;;;;5026767;28;20218;-63
2022/05/07 04:33:54;;;;;;;6.43;5.83;;;;;;;;;;5026891;28;20194;-63
2022/05/07 04:36:22;;;;;;;6.73;6.03;;;;;;;;;;5013413;28;20290;-62
2022/05/07 04:38:55;;;;;;;6.93;6.27;;;;;;;;;;5012091;28;20745;-63
2022/05/07 04:41:24;;;;;;;6.77;5.63;;;;;;;;;;5010649;28;20211;-62
2022/05/07 04:43:56;;;;;;;7.33;6.40;;;;;;;;;;5025709;28;20198;-62
2022/05/07 04:46:25;;;;;;;6.03;5.53;;;;;;;;;;5001962;28;20207;-62
2022/05/07 04:48:56;;;;;;;6.87;5.90;;;;;;;;;;5010982;28;20242;-62
2022/05/07 04:51:23;;;;;;;6.40;5.73;;;;;;;;;;5010027;28;20254;-62
2022/05/07 04:54:07;;;;;;;6.80;6.03;;;;;;;;;;5010094;28;20192;-63
2022/05/07 04:56:38;;;;;;;7.13;6.40;;;;;;;;;;5013517;28;20206;-63
2022/05/07 04:59:07;;;;;;;6.87;6.17;;;;;;;;;;5012497;28;20688;-64
2022/05/07 05:01:36;;;;;;;6.07;5.47;;;;;;;;;;5006411;28;20237;-64
2022/05/07 05:04:07;;;;;;;6.87;6.17;;;;;;;;;;5014861;28;20627;-62
2022/05/07 05:06:34;;;;;;;6.23;5.70;;;;;;;;;;5021371;28;20258;-63
2022/05/07 05:09:05;;;;;;;6.43;5.83;;;;;;;;;;5020390;28;20195;-63
2022/05/07 05:11:37;;;;;;;7.20;6.50;;;;;;;;;;5009306;28;20628;-64
2022/05/07 05:16:57;;;;;;;6.60;5.90;;;;;;;;;;5011245;28;20264;-62
2022/05/07 05:19:28;;;;;;;7.27;6.53;;;;;;;;;;5001701;28;20195;-62
2022/05/07 05:22:00;;;;;;;8.87;7.37;;;;;;;;;;5008415;28;20459;-63
2022/05/07 05:24:34;;;;;;;9.20;6.40;;;;;;;;;;5007784;28;20215;-61
2022/05/07 05:27:03;;;;;;;7.90;7.10;;;;;;;;;;5012091;28;20537;-61
2022/05/07 05:29:32;;;;;;;7.73;6.40;;;;;;;;;;5008792;28;20206;-62
2022/05/07 05:32:02;;;;;;;8.37;6.20;;;;;;;;;;4993589;28;20235;-61
2022/05/07 05:34:35;;;;;;;6.63;6.00;;;;;;;;;;5008103;28;20250;-62
2022/05/07 05:37:07;;;;;;;7.90;6.37;;;;;;;;;;5008164;28;20217;-63
2022/05/07 05:39:37;;;;;;;8.80;6.80;;;;;;;;;;4993058;28;20246;-62
2022/05/07 05:42:11;;;;;;;6.20;5.70;;;;;;;;;;5006560;28;20215;-62
2022/05/07 05:44:42;;;;;;;7.13;5.93;;;;;;;;;;5026908;28;20213;-62
2022/05/07 05:47:14;;;;;;;7.50;6.10;;;;;;;;;;5013067;28;20634;-62
2022/05/07 05:49:42;;;;;;;6.83;6.23;;;;;;;;;;4984341;28;20224;-62
2022/05/07 05:52:12;;;;;;;10.23;6.37;;;;;;;;;;4973281;28;20355;-62
2022/05/07 05:54:41;;;;;;;7.93;6.70;;;;;;;;;;4988522;28;20262;-61
2022/05/07 05:57:15;;;;;;;8.90;6.77;;;;;;;;;;4996512;28;20199;-62
2022/05/07 05:59:45;;;;;;;8.73;6.90;;;;;;;;;;5005495;28;20668;-62
2022/05/07 06:02:17;;;;;;;6.90;6.17;;;;;;;;;;4998122;28;20199;-62
2022/05/07 06:04:49;;;;;;;6.90;6.20;;;;;;;;;;5000320;28;20249;-62
2022/05/07 06:07:22;;;;;;;7.57;6.73;;;;;;;;;;5005907;28;20265;-62
2022/05/07 06:09:54;;;;;;;7.27;6.57;;;;;;;;;;4998454;28;20212;-62
2022/05/07 06:12:27;;;;;;;7.57;6.77;;;;;;;;;;5001809;28;20262;-62
2022/05/07 06:14:59;;;;;;;6.97;6.13;;;;;;;;;;4979119;28;20299;-62
2022/05/07 06:17:29;;;;;;;7.63;6.80;;;;;;;;;;5005816;28;20207;-62
2022/05/07 06:19:59;;;;;;;7.43;6.50;;;;;;;;;;4990576;28;20617;-62
2022/05/07 06:22:29;;;;;;;7.90;6.60;;;;;;;;;;4995268;28;20203;-62
2022/05/07 06:27:43;;;;;;;6.80;6.10;;;;;;;;;;4994708;28;20203;-62
2022/05/07 06:30:10;;;;;;;6.40;5.63;;;;;;;;;;4996751;28;20553;-62
2022/05/07 06:32:41;;;;;;;6.87;5.60;;;;;;;;;;5002506;28;20642;-62
2022/05/07 06:35:12;;;;;;;6.90;6.20;;;;;;;;;;4997165;28;20201;-62
2022/05/07 06:37:40;;;;;;;6.63;6.03;;;;;;;;;;5008521;28;20219;-62
2022/05/07 06:40:08;;;;;;;6.67;6.00;;;;;;;;;;5008104;28;20267;-62
2022/05/07 06:42:41;;;;;;;6.90;6.20;;;;;;;;;;5007777;28;20211;-62
2022/05/07 06:45:09;;;;;;;6.83;5.77;;;;;;;;;;5010945;28;20203;-62
2022/05/07 06:47:39;;;;;;;6.23;5.63;;;;;;;;;;5013313;28;20226;-62
2022/05/07 06:50:07;;;;;;;6.97;6.27;;;;;;;;;;4989465;28;20266;-62
2022/05/07 06:52:45;;;;;;;7.40;6.53;;;;;;;;;;5007421;28;20228;-62
2022/05/07 06:55:15;;;;;;;7.37;6.67;;;;;;;;;;4967233;28;20219;-62
2022/05/07 06:57:45;;;;;;;6.90;5.70;;;;;;;;;;5000859;28;20196;-62
2022/05/07 07:00:36;;;;;;;8.07;6.77;;;;;;;;;;5010058;28;20211;-62
2022/05/07 07:03:08;;;;;;;7.13;6.33;;;;;;;;;;5011495;28;20246;-62
2022/05/07 07:05:39;;;;;;;6.83;6.13;;;;;;;;;;5011656;28;20187;-62
2022/05/07 07:08:08;;;;;;;6.77;6.13;;;;;;;;;;5008132;28;20225;-62
2022/05/07 07:10:41;;;;;;;7.07;6.37;;;;;;;;;;5003978;28;20263;-62
2022/05/07 07:13:12;;;;;;;7.47;6.77;;;;;;;;;;5007074;28;20243;-62
2022/05/07 07:15:44;;;;;;;7.30;6.60;;;;;;;;;;4986106;28;20200;-62
2022/05/07 07:18:15;;;;;;;7.53;6.73;;;;;;;;;;4988979;28;20706;-62
2022/05/07 07:20:49;;;;;;;7.50;6.73;;;;;;;;;;5009852;28;20618;-62
2022/05/07 07:23:20;;;;;;;7.70;6.83;;;;;;;;;;5009066;28;20535;-62
2022/05/07 07:25:47;;;;;;;7.90;7.13;;;;;;;;;;5005056;28;20212;-62
2022/05/07 07:28:14;;;;;;;9.67;7.63;;;;;;;;;;5006124;28;20210;-62
2022/05/07 07:30:41;;;;;;;8.37;7.57;;;;;;;;;;5008596;28;20202;-62
2022/05/07 07:33:13;;;;;;;7.87;7.07;;;;;;;;;;5008771;28;20290;-61
2022/05/07 07:35:40;;;;;;;8.00;7.20;;;;;;;;;;5006684;28;20641;-62
2022/05/07 07:38:07;;;;;;;7.77;6.73;;;;;;;;;;5002514;28;20215;-62
2022/05/07 07:40:35;;;;;;;10.53;8.30;;;;;;;;;;5008680;28;20299;-62
2022/05/07 07:43:03;;;;;;;8.40;7.47;;;;;;;;;;4995564;28;20208;-62
2022/05/07 07:48:20;;;;;;;7.67;6.87;;;;;;;;;;4995266;28;20207;-62
2022/05/07 07:50:51;;;;;;;7.37;6.67;;;;;;;;;;5009605;28;20693;-61
2022/05/07 07:53:24;;;;;;;7.70;7.00;;;;;;;;;;5016058;28;20762;-61
2022/05/07 07:55:53;;;;;;;9.23;8.23;;;;;;;;;;5007236;28;20196;-62
2022/05/07 07:58:22;;;;;;;11.37;7.50;;;;;;;;;;5008999;28;20486;-62
2022/05/07 08:00:49;;;;;;;8.13;7.33;;;;;;;;;;5005044;28;20223;-62
2022/05/07 08:03:21;;;;;;;6.97;6.30;;;;;;;;;;5014231;28;20565;-62
2022/05/07 08:05:53;;;;;;;6.70;6.10;;;;;;;;;;4996666;28;20215;-62
2022/05/07 08:13:59;;;;;;;6.77;5.97;;;;;;;;;;5006673;28;20215;-62
2022/05/07 08:16:29;;;;;;;8.37;5.97;;;;;;;;;;5012075;28;20266;-62
2022/05/07 08:19:01;;;;;;;7.70;5.87;;;;;;;;;;5000510;28;20204;-63
2022/05/07 08:21:29;;;;;;;7.10;5.77;;;;;;;;;;5007809;28;20204;-61
2022/05/07 08:23:58;;;;;;;6.20;5.60;;;;;;;;;;4996029;28;20230;-62
2022/05/07 08:26:28;;;;;;;6.93;6.23;;;;;;;;;;5025145;28;20691;-62
2022/05/07 08:29:03;;;;;;;8.67;7.20;;;;;;;;;;5016993;28;20195;-62
2022/05/07 08:31:32;;;;;;;19.07;7.90;;;;;;;;;;5007728;28;20223;-62
2022/05/07 08:34:03;;;;;;;14.27;8.00;;;;;;;;;;5005222;28;20223;-61
2022/05/07 08:36:36;;;;;;;12.90;7.63;;;;;;;;;;5004902;28;20208;-61
2022/05/07 08:39:21;;;;;;;10.13;7.33;;;;;;;;;;5003637;28;20633;-60
2022/05/07 08:41:54;;;;;;;10.70;8.57;;;;;;;;;;4996238;28;20202;-61
2022/05/07 08:44:26;;;;;;;10.70;6.80;;;;;;;;;;5005778;28;20617;-61
2022/05/07 08:47:01;;;;;;;9.40;7.20;;;;;;;;;;5006594;28;20269;-61
2022/05/07 08:49:32;;;;;;;9.37;7.50;;;;;;;;;;4987034;28;20300;-61
2022/05/07 08:52:02;;;;;;;11.47;8.33;;;;;;;;;;5003602;28;20242;-61
2022/05/07 08:54:35;;;;;;;11.27;7.80;;;;;;;;;;4999443;28;20215;-62
2022/05/07 08:57:05;;;;;;;8.10;7.13;;;;;;;;;;4970596;28;20201;-61
2022/05/07 08:59:37;;;;;;;9.47;7.53;;;;;;;;;;5009632;28;20195;-62
2022/05/07 09:02:09;;;;;;;11.37;7.60;;;;;;;;;;5000992;28;20211;-62
2022/05/07 09:04:59;;;;;;;9.97;7.30;;;;;;;;;;5001907;28;20234;-63
2022/05/07 09:07:35;;;;;;;8.90;7.13;;;;;;;;;;5004727;28;20225;-61
2022/05/07 09:10:13;;;;;;;8.07;6.93;;;;;;;;;;5012673;28;20203;-61
2022/05/07 09:12:44;;;;;;;9.60;7.67;;;;;;;;;;5004702;28;20239;-61
2022/05/07 09:15:15;;;;;;;10.43;7.97;;;;;;;;;;5010610;28;20238;-63
2022/05/07 09:17:49;;;;;;;10.23;7.80;;;;;;;;;;5006766;28;20626;-63
2022/05/07 09:20:23;;;;;;;10.93;7.57;;;;;;;;;;5010625;28;20215;-62
2022/05/07 09:22:56;;;;;;;9.63;6.83;;;;;;;;;;4996161;28;20199;-62
2022/05/07 09:25:30;;;;;;;8.33;7.40;;;;;;;;;;5021165;28;20305;-62
2022/05/07 09:28:03;;;;;;;9.07;8.20;;;;;;;;;;5011750;28;20199;-61
2022/05/07 09:30:33;;;;;;;8.77;7.87;;;;;;;;;;5024273;28;20226;-62
2022/05/07 09:33:06;;;;;;;8.47;7.63;;;;;;;;;;5012546;28;20223;-61
2022/05/07 09:35:49;;;;;;;8.23;6.87;;;;;;;;;;5010058;28;20187;-63
2022/05/07 09:38:26;;;;;;;7.53;6.63;;;;;;;;;;4990007;28;20265;-61
2022/05/07 09:40:54;;;;;;;7.93;6.90;;;;;;;;;;5042209;28;20187;-63
2022/05/07 09:43:37;;;;;;;8.60;7.00;;;;;;;;;;5014478;28;20199;-62
2022/05/07 09:46:09;;;;;;;15.10;6.93;;;;;;;;;;5002131;28;20439;-63
2022/05/07 09:48:45;;;;;;;9.80;6.10;;;;;;;;;;5003228;28;20661;-63
2022/05/07 09:51:14;;;;;;;9.67;6.53;;;;;;;;;;5006991;28;20206;-63
2022/05/07 09:59:33;;;;;;;9.23;6.57;;;;;;;;;;5010806;28;20199;-63
2022/05/07 10:02:05;;;;;;;9.53;6.50;;;;;;;;;;4985093;28;20756;-64
2022/05/07 10:05:04;;;;;;;14.13;6.73;;;;;;;;;;5007443;28;20259;-63
2022/05/07 10:07:34;;;;;;;13.07;8.27;;;;;;;;;;4983504;28;20893;-63
2022/05/07 10:10:18;;;;;;;9.80;6.57;;;;;;;;;;5006696;28;20302;-63
2022/05/07 10:12:47;;;;;;;10.00;7.00;;;;;;;;;;5007516;28;20239;-63
2022/05/07 10:15:23;;;;;;;14.20;8.30;;;;;;;;;;5009381;28;20731;-63
2022/05/07 10:18:04;;;;;;;12.50;8.70;;;;;;;;;;5007140;28;20191;-63
2022/05/07 10:20:41;;;;;;;16.67;8.50;;;;;;;;;;5022515;28;20348;-63
2022/05/07 10:23:09;;;;;;;12.43;7.83;;;;;;;;;;5003379;28;20187;-63
2022/05/07 10:25:39;;;;;;;12.67;9.03;;;;;;;;;;5005976;28;20758;-63
2022/05/07 10:28:09;;;;;;;14.67;9.07;;;;;;;;;;5009629;28;20830;-63
2022/05/07 10:30:48;;;;;;;12.67;8.00;;;;;;;;;;5015322;28;20547;-63
2022/05/07 10:33:18;;;;;;;13.80;7.83;;;;;;;;;;5026446;28;20306;-63
2022/05/07 10:35:53;;;;;;;15.53;8.47;;;;;;;;;;5009210;28;20200;-63
2022/05/07 10:38:27;;;;;;;11.57;8.23;;;;;;;;;;5008824;28;20631;-64
2022/05/07 10:40:55;;;;;;;13.27;8.03;;;;;;;;;;5012011;28;20196;-63
2022/05/07 10:43:38;;;;;;;13.20;7.90;;;;;;;;;;5009896;28;20238;-63
2022/05/07 10:46:06;;;;;;;16.37;7.80;;;;;;;;;;5006538;28;20253;-63
2022/05/07 10:48:47;;;;;;;10.43;6.87;;;;;;;;;;5008868;28;20652;-63
2022/05/07 10:51:27;;;;;;;9.43;7.40;;;;;;;;;;5026162;28;20579;-63
2022/05/07 10:54:02;;;;;;;10.83;6.73;;;;;;;;;;4983530;28;20297;-62
2022/05/07 10:56:38;;;;;;;9.30;6.33;;;;;;;;;;5007472;28;20226;-63
2022/05/07 10:59:22;;;;;;;9.13;6.20;;;;;;;;;;4994149;28;20286;-63
2022/05/07 11:01:53;;;;;;;7.93;5.93;;;;;;;;;;5007131;28;20849;-63
2022/05/07 11:04:30;;;;;;;9.63;6.93;;;;;;;;;;4995590;28;20235;-63
2022/05/07 11:07:01;;;;;;;8.70;7.30;;;;;;;;;;5030901;28;20191;-62
2022/05/07 11:09:34;;;;;;;9.67;7.80;;;;;;;;;;5017630;28;20208;-62
2022/05/07 11:12:19;;;;;;;8.67;7.27;;;;;;;;;;5011160;28;20284;-63
2022/05/07 11:14:47;;;;;;;8.80;6.80;;;;;;;;;;5010090;28;20204;-62
2022/05/07 11:17:20;;;;;;;9.03;7.07;;;;;;;;;;5010330;28;20196;-62
2022/05/07 11:19:52;;;;;;;6.47;5.83;;;;;;;;;;5007472;28;20596;-62
2022/05/07 11:22:33;;;;;;;7.87;6.40;;;;;;;;;;5021136;28;20200;-63
2022/05/07 11:25:03;;;;;;;8.33;6.77;;;;;;;;;;5008060;28;20204;-63
2022/05/07 11:27:40;;;;;;;8.17;7.33;;;;;;;;;;5029292;28;20270;-63
2022/05/07 11:30:15;;;;;;;7.83;6.90;;;;;;;;;;5014868;28;20200;-63
2022/05/07 11:32:46;;;;;;;8.30;7.00;;;;;;;;;;5028730;28;20211;-63
2022/05/07 11:35:17;;;;;;;8.97;7.70;;;;;;;;;;5012365;28;20199;-63
2022/05/07 11:37:46;;;;;;;8.77;7.83;;;;;;;;;;5019142;28;20611;-63
2022/05/07 11:40:14;;;;;;;7.47;6.77;;;;;;;;;;5015904;28;20211;-62
2022/05/07 11:42:45;;;;;;;8.63;6.60;;;;;;;;;;5014214;28;20200;-62
2022/05/07 11:45:30;;;;;;;10.87;7.50;;;;;;;;;;5013343;28;20198;-62
2022/05/07 11:47:59;;;;;;;7.60;6.77;;;;;;;;;;5023327;28;20175;-63
2022/05/07 11:50:49;;;;;;;7.23;6.53;;;;;;;;;;5008624;28;20203;-63
2022/05/07 11:53:17;;;;;;;8.03;6.30;;;;;;;;;;4997403;28;20231;-63
2022/05/07 11:55:47;;;;;;;11.73;6.53;;;;;;;;;;5013737;28;20230;-62
2022/05/07 11:58:21;;;;;;;8.17;6.27;;;;;;;;;;5010502;28;20207;-63
2022/05/07 12:00:55;;;;;;;7.00;6.30;;;;;;;;;;5010998;28;20629;-63
2022/05/07 12:03:31;;;;;;;6.70;5.73;;;;;;;;;;5012630;28;20238;-63
2022/05/07 12:06:02;;;;;;;7.47;6.77;;;;;;;;;;5012625;28;20191;-63
2022/05/07 12:08:38;;;;;;;7.83;6.13;;;;;;;;;;5013118;28;20721;-63
2022/05/07 12:11:08;;;;;;;7.27;6.20;;;;;;;;;;5012121;28;20749;-63
2022/05/07 12:13:38;;;;;;;6.57;5.90;;;;;;;;;;5004635;28;20223;-63
2022/05/07 12:18:58;;;;;;;6.23;4.83;;;;;;;;;;4992394;28;20247;-63
2022/05/07 12:29:52;;;;;;;7.80;5.17;;;;;;;;;;5013455;28;20203;-63
2022/05/07 12:32:24;;;;;;;5.57;5.07;;;;;;;;;;5022806;28;20199;-63
2022/05/07 12:35:01;;;;;;;5.03;4.50;;;;;;;;;;5029279;28;20183;-63
2022/05/07 12:37:37;;;;;;;6.10;5.37;;;;;;;;;;5025216;28;20268;-63
2022/05/07 12:40:12;;;;;;;5.80;4.10;;;;;;;;;;5013621;28;20222;-63
2022/05/07 12:42:43;;;;;;;5.30;4.80;;;;;;;;;;5016182;28;20235;-63
2022/05/07 12:45:16;;;;;;;5.13;4.50;;;;;;;;;;5008148;28;20191;-63
2022/05/07 12:47:45;;;;;;;5.57;4.63;;;;;;;;;;4979304;28;20293;-63
2022/05/07 12:50:15;;;;;;;5.10;4.13;;;;;;;;;;5012624;28;20216;-63
2022/05/07 12:52:43;;;;;;;4.73;3.60;;;;;;;;;;5010020;28;20227;-63
2022/05/07 12:55:10;;;;;;;4.53;3.93;;;;;;;;;;5020404;28;20212;-63
2022/05/07 12:57:37;;;;;;;5.10;4.60;;;;;;;;;;5004198;28;20624;-63
2022/05/07 13:00:04;;;;;;;4.77;4.33;;;;;;;;;;5009217;28;20199;-62
2022/05/07 13:02:35;;;;;;;4.03;3.63;;;;;;;;;;5020944;28;20191;-63
2022/05/07 13:05:03;;;;;;;4.60;3.83;;;;;;;;;;5009359;28;20258;-63
2022/05/07 13:07:31;;;;;;;4.10;3.70;;;;;;;;;;5020883;28;20203;-63
2022/05/07 13:09:58;;;;;;;3.93;3.37;;;;;;;;;;4987245;28;20195;-63
2022/05/07 13:12:25;;;;;;;4.30;3.90;;;;;;;;;;5016415;28;20215;-63
2022/05/07 13:14:55;;;;;;;4.67;4.13;;;;;;;;;;5005899;28;20200;-63
2022/05/07 13:17:23;;;;;;;4.77;4.23;;;;;;;;;;5001123;28;20202;-64
2022/05/07 13:19:50;;;;;;;4.50;4.10;;;;;;;;;;4999731;28;20242;-63
2022/05/07 13:22:18;;;;;;;4.17;3.70;;;;;;;;;;5008761;28;20247;-64
2022/05/07 13:24:46;;;;;;;4.03;3.63;;;;;;;;;;4983779;28;20665;-62
2022/05/07 13:27:13;;;;;;;4.60;3.40;;;;;;;;;;5015168;28;20195;-63
2022/05/07 13:29:40;;;;;;;4.83;3.53;;;;;;;;;;5007164;28;20203;-63
2022/05/07 13:32:09;;;;;;;5.73;5.10;;;;;;;;;;5006040;28;20466;-63
2022/05/07 13:34:38;;;;;;;5.37;4.60;;;;;;;;;;5004261;28;20353;-64
2022/05/07 13:37:13;;;;;;;4.30;3.90;;;;;;;;;;5011405;28;20218;-64
2022/05/07 13:39:45;;;;;;;6.00;4.00;;;;;;;;;;5019074;28;20203;-63
2022/05/07 13:42:15;;;;;;;6.30;4.80;;;;;;;;;;5007243;28;20200;-63
2022/05/07 13:44:50;;;;;;;7.80;5.10;;;;;;;;;;5001299;28;20208;-63
2022/05/07 13:47:27;;;;;;;5.80;5.23;;;;;;;;;;5007515;28;20548;-65
2022/05/07 13:49:57;;;;;;;7.07;4.60;;;;;;;;;;5014230;28;20222;-66
2022/05/07 13:52:27;;;;;;;5.43;4.80;;;;;;;;;;5002250;28;20214;-64
2022/05/07 13:55:00;;;;;;;5.77;4.70;;;;;;;;;;5006361;28;20262;-65
2022/05/07 13:57:33;;;;;;;5.80;5.07;;;;;;;;;;5013381;28;20618;-66
2022/05/07 14:00:04;;;;;;;6.37;5.10;;;;;;;;;;5002093;28;20640;-66
2022/05/07 14:02:34;;;;;;;5.17;4.67;;;;;;;;;;5014001;28;20199;-65
2022/05/07 14:05:01;;;;;;;6.23;4.77;;;;;;;;;;5016935;28;20239;-65
2022/05/07 14:07:29;;;;;;;5.70;5.10;;;;;;;;;;5013014;28;20290;-65
2022/05/07 14:09:57;;;;;;;5.77;4.90;;;;;;;;;;5006124;28;20203;-65
2022/05/07 14:12:25;;;;;;;5.73;4.90;;;;;;;;;;5004088;28;20697;-65
2022/05/07 14:14:52;;;;;;;6.33;4.80;;;;;;;;;;5005579;28;20224;-65
2022/05/07 14:17:22;;;;;;;5.70;5.10;;;;;;;;;;5008347;28;20188;-66
2022/05/07 14:19:54;;;;;;;5.60;5.10;;;;;;;;;;5003347;28;20200;-64
2022/05/07 14:22:22;;;;;;;6.47;5.13;;;;;;;;;;4993379;28;20199;-65
2022/05/07 14:24:54;;;;;;;6.57;5.00;;;;;;;;;;5014318;28;20565;-64
2022/05/07 14:27:31;;;;;;;5.60;4.90;;;;;;;;;;5006263;28;20203;-66
2022/05/07 14:29:58;;;;;;;5.10;4.40;;;;;;;;;;5002550;28;20254;-65
2022/05/07 14:32:26;;;;;;;6.13;4.67;;;;;;;;;;5005294;28;20543;-65
2022/05/07 14:34:54;;;;;;;8.27;5.63;;;;;;;;;;5005604;28;20274;-65
2022/05/07 14:37:21;;;;;;;4.93;4.47;;;;;;;;;;5006822;28;20219;-64
2022/05/07 14:39:48;;;;;;;5.90;4.77;;;;;;;;;;5013399;28;20241;-64
2022/05/07 14:42:17;;;;;;;6.03;4.83;;;;;;;;;;5001728;28;20203;-65
2022/05/07 14:44:44;;;;;;;5.17;4.67;;;;;;;;;;5023744;28;20188;-65
2022/05/07 14:47:11;;;;;;;6.40;4.53;;;;;;;;;;5010183;28;20245;-64
2022/05/07 14:49:38;;;;;;;4.27;3.77;;;;;;;;;;5022849;28;20242;-64
2022/05/07 14:52:06;;;;;;;4.33;3.40;;;;;;;;;;5007571;28;20558;-65
2022/05/07 14:54:43;;;;;;;4.20;3.53;;;;;;;;;;4993569;28;20223;-65
2022/05/07 14:57:10;;;;;;;4.97;3.60;;;;;;;;;;5009490;28;20282;-65
2022/05/07 14:59:37;;;;;;;3.43;3.10;;;;;;;;;;5025140;28;20196;-65
2022/05/07 15:02:05;;;;;;;3.90;3.57;;;;;;;;;;5009972;28;20377;-65
2022/05/07 15:04:32;;;;;;;3.60;3.30;;;;;;;;;;5025939;28;20234;-64
2022/05/07 15:07:06;;;;;;;4.20;3.30;;;;;;;;;;5010089;28;20199;-64
2022/05/07 15:12:19;;;;;;;4.13;3.60;;;;;;;;;;5006986;28;20224;-65
2022/05/07 15:14:46;;;;;;;3.60;3.30;;;;;;;;;;5022786;28;20277;-64
2022/05/07 15:17:13;;;;;;;4.53;3.80;;;;;;;;;;5005840;28;20227;-65
2022/05/07 15:19:40;;;;;;;4.33;3.93;;;;;;;;;;5022267;28;20254;-65
2022/05/07 15:22:08;;;;;;;4.23;3.50;;;;;;;;;;5008027;28;20303;-66
2022/05/07 15:24:36;;;;;;;3.77;3.47;;;;;;;;;;5021502;28;20219;-65
2022/05/07 15:27:09;;;;;;;3.60;3.30;;;;;;;;;;5021829;28;20184;-66
2022/05/07 15:29:39;;;;;;;3.43;3.13;;;;;;;;;;5025135;28;20219;-65
2022/05/07 15:37:50;;;;;;;3.70;3.27;;;;;;;;;;5001087;28;20200;-64
2022/05/07 15:40:17;;;;;;;4.30;2.90;;;;;;;;;;5008375;28;20653;-64
2022/05/07 15:42:45;;;;;;;3.37;3.07;;;;;;;;;;5003020;28;20200;-64
2022/05/07 15:45:13;;;;;;;3.07;2.77;;;;;;;;;;5023033;28;20261;-65
2022/05/07 15:47:41;;;;;;;3.83;2.90;;;;;;;;;;4996086;28;20193;-65
2022/05/07 15:50:09;;;;;;;4.03;3.03;;;;;;;;;;5013597;28;20211;-65
2022/05/07 15:52:38;;;;;;;3.00;2.70;;;;;;;;;;5010088;28;20207;-65
2022/05/07 15:55:10;;;;;;;3.10;2.90;;;;;;;;;;5016920;28;20234;-64